Clarks Hill, IN

9:42 AM EST on February 06, 2016 (GMT -0500)
Lafayette, Indiana area | | Change Station
CLOSE
Current Station
Personal Weather Station
Location: Romney, IN
Elevation: 755 ft
Nearby Weather Stations

Elev 755 ft 40.26 °N, 86.89 °W | Updated 14 minutes ago

Mostly Cloudy
Mostly Cloudy
26.7 °F
Feels Like 22 °F
N
4.0
Wind Variable Wind from South
Gusts 6.0 mph

Today
High -- | Low -- °F
--% Chance of Precip.
Yesterday
High -- | Low -- °F
Precip. -- in
Pressure 30.36 in
Visibility 4.0 miles
Clouds Overcast 6500 ft
Windchill 22 °F
Dew Point 25 °F
Humidity 91%
Rainfall 0.00 in
Snow Depth Not available.
7:51 AM 6:11 PM
Waning Crescent, 5% visible
METAR KLAF 061354Z 00000KT 4SM BR OVC065 M06/M07 A3034 RMK AO2 SLP281 T10561067
Pressure 30.36 in
Visibility 4.0 miles
Clouds Overcast 6500 ft
Windchill 22 °F
Dew Point 25 °F
Humidity 91%
Rainfall 0.00 in
Snow Depth Not available.
7:51 AM 6:11 PM
Waning Crescent, 5% visible
METAR KLAF 061354Z 00000KT 4SM BR OVC065 M06/M07 A3034 RMK AO2 SLP281 T10561067

10-Day Weather Forecast

Almanac

Astronomy

Feb. 06, 2016 Rise Set
Actual Time
Civil Twilight
Nautical Twilight
Astronomical Twilight
Moon
Length of Visible Light
Length of Day
Tomorrow will be .
, % of the Moon is Illuminated

Today's Extremes

State Highs State Lows

Community

WunderPhotos

Upload Photos

1,890,983 photos uploaded!

WunderBlog® & News

Nearby

Air Quality

  Air Quality AQ Index Pollutant
Not available.

Snow Depth

Station Depth Elevation

Earthquake Activity

City Distance Mag. Time & Date
Minimum magnitude displayed is 2.5.

Coastal Water Temperatures

Place Temperature

Stations

Nearby Weather Stations

Station Location Temp. Windchill Dew Point Humidity Wind Precip. Elev Updated Type
                   

Watches & Warnings

There are currently no watches in effect.